createdAt,value
2022-12-23T00:02:20.337Z,13
2022-12-23T00:04:48.413Z,11
2022-12-23T00:07:16.669Z,13
2022-12-23T00:09:44.890Z,10
2022-12-23T00:12:13.145Z,16
2022-12-23T00:14:41.426Z,13
2022-12-23T00:18:23.738Z,18
2022-12-23T00:23:20.253Z,11
2022-12-23T00:26:25.675Z,9
2022-12-23T00:29:30.905Z,10
2022-12-23T00:32:36.205Z,11
2022-12-23T00:37:32.691Z,11
2022-12-23T00:40:38.001Z,13
2022-12-23T00:43:06.265Z,14
2022-12-23T00:46:48.598Z,15
2022-12-23T00:49:16.893Z,10
2022-12-23T00:51:45.163Z,12
2022-12-23T00:57:10.481Z,11
2022-12-23T01:08:17.617Z,12
2022-12-23T01:11:59.965Z,12
2022-12-23T01:16:56.515Z,12
2022-12-23T01:19:24.742Z,11
2022-12-23T01:21:52.980Z,13
2022-12-23T01:24:21.221Z,12
2022-12-23T01:26:49.461Z,14
2022-12-23T01:29:17.735Z,12
2022-12-23T01:32:23.017Z,14
2022-12-23T01:35:28.322Z,9
2022-12-23T01:38:33.657Z,7
2022-12-23T01:41:38.956Z,5
2022-12-23T01:46:35.464Z,7
2022-12-23T01:51:31.899Z,4
2022-12-23T01:54:37.241Z,3
2022-12-23T01:57:26.207Z,12
2022-12-23T01:59:54.421Z,8
2022-12-23T02:02:22.718Z,6
2022-12-23T02:05:27.934Z,7
2022-12-23T02:07:56.252Z,5
2022-12-23T02:11:38.570Z,5
2022-12-23T02:15:20.981Z,6
2022-12-23T02:20:54.541Z,8
2022-12-23T02:23:22.772Z,10
2022-12-23T02:25:51.024Z,10
2022-12-23T02:28:19.249Z,6
2022-12-23T02:30:47.558Z,13
2022-12-23T02:33:52.793Z,7
2022-12-23T02:36:21.116Z,9
2022-12-23T02:41:17.569Z,5
2022-12-23T02:44:22.841Z,13
2022-12-23T02:47:28.208Z,5
2022-12-23T02:50:33.517Z,6
2022-12-23T02:53:38.788Z,15
2022-12-23T02:57:21.157Z,3
2022-12-23T03:00:26.485Z,3
2022-12-23T03:05:23.005Z,5
2022-12-23T03:08:11.891Z,5
2022-12-23T03:10:40.171Z,4
2022-12-23T03:13:08.409Z,5
2022-12-23T03:16:50.755Z,4
2022-12-23T03:19:19.011Z,4
2022-12-23T03:22:24.319Z,7
2022-12-23T03:25:29.620Z,4
2022-12-23T03:30:26.130Z,8
2022-12-23T03:33:31.443Z,5
2022-12-23T03:36:36.754Z,4
2022-12-23T03:40:19.131Z,6
2022-12-23T03:44:38.530Z,2
2022-12-23T03:49:35.067Z,3
2022-12-23T03:53:17.374Z,13
2022-12-23T03:56:22.759Z,9
2022-12-23T03:59:28.137Z,4
2022-12-23T04:02:33.491Z,3
2022-12-23T04:07:29.921Z,13
2022-12-23T04:12:26.423Z,6
2022-12-23T04:16:45.750Z,3
2022-12-23T04:19:14.035Z,3
2022-12-23T04:21:42.296Z,4
2022-12-23T04:24:10.501Z,7
2022-12-23T04:27:52.884Z,3
2022-12-23T04:34:40.601Z,5
2022-12-23T04:37:08.851Z,5
2022-12-23T04:40:51.165Z,4
2022-12-23T04:44:33.567Z,3
2022-12-23T04:49:21.864Z,4
2022-12-23T04:53:04.238Z,3
2022-12-23T04:56:46.597Z,5
2022-12-23T04:59:14.850Z,3
2022-12-23T05:02:57.337Z,3
2022-12-23T05:05:25.494Z,3
2022-12-23T05:08:30.769Z,5
2022-12-23T05:11:40.272Z,3
2022-12-23T05:14:41.352Z,7
2022-12-23T05:17:09.649Z,7
2022-12-23T05:20:51.984Z,5
2022-12-23T05:23:20.227Z,5
2022-12-23T05:25:48.488Z,6
2022-12-23T05:32:36.174Z,7
2022-12-23T05:36:18.547Z,11
2022-12-23T05:49:53.933Z,5
2022-12-23T05:52:59.211Z,4
2022-12-23T05:57:18.656Z,4
2022-12-23T06:00:23.953Z,4
2022-12-23T06:02:54.065Z,3
2022-12-23T06:06:34.606Z,3
2022-12-23T06:09:39.898Z,4
2022-12-23T06:12:08.261Z,4
2022-12-23T06:14:36.372Z,4
2022-12-23T06:17:41.749Z,4
2022-12-23T06:20:13.493Z,4
2022-12-23T06:23:52.305Z,4
2022-12-23T06:27:34.687Z,4
2022-12-23T06:32:36.189Z,5
2022-12-23T06:36:13.553Z,4
2022-12-23T06:38:41.804Z,3
2022-12-23T06:41:47.081Z,6
2022-12-23T06:46:27.235Z,5
2022-12-23T06:51:23.727Z,8
2022-12-23T06:54:29.039Z,19
2022-12-23T06:57:34.387Z,6
2022-12-23T07:01:53.829Z,5
2022-12-23T07:04:22.020Z,3
2022-12-23T07:06:50.344Z,4
2022-12-23T07:09:18.495Z,5
2022-12-23T07:11:46.785Z,4
2022-12-23T07:15:29.114Z,5
2022-12-23T07:18:34.436Z,4
2022-12-23T07:21:39.722Z,3
2022-12-23T07:25:59.202Z,4
2022-12-23T07:29:41.552Z,6
2022-12-23T07:32:09.855Z,6
2022-12-23T07:35:52.143Z,6
2022-12-23T07:39:34.550Z,6
2022-12-23T07:43:16.886Z,5
2022-12-23T07:46:22.291Z,9
2022-12-23T07:49:27.496Z,8
2022-12-23T07:53:09.909Z,12
2022-12-23T07:56:52.272Z,7
2022-12-23T07:59:20.509Z,6
2022-12-23T08:01:48.891Z,7
2022-12-23T08:05:23.000Z,5
2022-12-23T08:08:28.244Z,7
2022-12-23T08:11:33.557Z,7
2022-12-23T08:16:30.183Z,10
2022-12-23T08:19:35.385Z,9
2022-12-23T08:27:37.172Z,6
2022-12-23T08:32:33.649Z,6
2022-12-23T08:37:30.166Z,11
2022-12-23T08:39:58.373Z,10
2022-12-23T08:43:03.792Z,7
2022-12-23T08:45:31.950Z,9
2022-12-23T08:48:37.301Z,13
2022-12-23T08:52:19.747Z,12
2022-12-23T08:55:24.987Z,15
2022-12-23T08:57:53.205Z,9
2022-12-23T09:04:41.097Z,9
2022-12-23T09:07:46.170Z,9
2022-12-23T09:10:14.433Z,10
2022-12-23T09:12:42.705Z,9
2022-12-23T09:16:25.159Z,14
2022-12-23T09:19:30.358Z,10
2022-12-23T09:23:12.733Z,10
2022-12-23T09:27:15.816Z,8
2022-12-23T09:29:44.023Z,10
2022-12-23T09:32:12.327Z,10
2022-12-23T09:34:40.504Z,8
2022-12-23T09:39:37.048Z,9
2022-12-23T09:43:19.412Z,8
2022-12-23T09:46:24.725Z,9
2022-12-23T09:49:30.020Z,10
2022-12-23T09:52:35.290Z,10
2022-12-23T09:56:17.650Z,7
2022-12-23T09:59:22.955Z,9
2022-12-23T10:02:28.424Z,9
2022-12-23T10:05:33.676Z,7
2022-12-23T10:08:38.918Z,11
2022-12-23T10:12:27.365Z,8
2022-12-23T10:17:17.803Z,9
2022-12-23T10:23:28.416Z,9
2022-12-23T10:28:24.872Z,9
2022-12-23T10:33:21.386Z,9
2022-12-23T10:38:09.689Z,8
2022-12-23T10:40:37.935Z,11
2022-12-23T10:44:57.379Z,14
2022-12-23T10:48:39.742Z,14
2022-12-23T10:51:07.985Z,9
2022-12-23T10:56:41.551Z,13
2022-12-23T10:59:09.777Z,13
2022-12-23T11:02:52.347Z,9
2022-12-23T11:05:20.405Z,16
2022-12-23T11:08:25.729Z,16
2022-12-23T11:11:31.016Z,17
2022-12-23T11:18:18.712Z,13
2022-12-23T11:31:17.060Z,28
2022-12-23T11:42:24.111Z,39
2022-12-23T11:44:52.373Z,38
2022-12-23T11:47:20.594Z,38
2022-12-23T11:49:49.000Z,36
2022-12-23T11:52:17.197Z,43
2022-12-23T11:54:46.766Z,37
2022-12-23T11:57:13.871Z,35
2022-12-23T12:01:28.937Z,24
2022-12-23T12:04:34.248Z,36
2022-12-23T12:07:39.628Z,42
2022-12-23T12:10:44.882Z,37
2022-12-23T12:13:13.127Z,40
2022-12-23T12:15:41.356Z,40
2022-12-23T12:18:50.595Z,37
2022-12-23T12:21:51.973Z,40
2022-12-23T12:24:20.279Z,31
2022-12-23T12:26:48.465Z,33
2022-12-23T12:29:16.726Z,30
2022-12-23T12:34:50.328Z,33
2022-12-23T12:37:18.560Z,28
2022-12-23T12:39:46.770Z,26
2022-12-23T12:42:15.046Z,29
2022-12-23T12:44:43.293Z,26
2022-12-23T12:47:28.432Z,17
2022-12-23T12:49:39.757Z,24
2022-12-23T12:52:07.999Z,23
2022-12-23T12:57:04.519Z,23
2022-12-23T12:59:32.803Z,22
2022-12-23T13:02:38.103Z,25
2022-12-23T13:06:20.415Z,22
2022-12-23T13:09:25.735Z,23
2022-12-23T13:12:31.047Z,21
2022-12-23T13:17:27.542Z,26
2022-12-23T13:19:55.811Z,27
2022-12-23T13:23:15.082Z,26
2022-12-23T13:26:43.449Z,20
2022-12-23T13:29:11.741Z,22
2022-12-23T13:31:39.992Z,18
2022-12-23T13:34:08.238Z,29
2022-12-23T13:38:19.458Z,26
2022-12-23T13:41:24.776Z,29
2022-12-23T13:44:30.084Z,26
2022-12-23T13:50:40.680Z,22
2022-12-23T13:53:45.997Z,23
2022-12-23T13:56:51.299Z,23
2022-12-23T14:01:10.809Z,22
2022-12-23T14:04:16.073Z,20
2022-12-23T14:07:21.408Z,15
2022-12-23T14:10:26.672Z,16
2022-12-23T14:20:19.662Z,12
2022-12-23T14:28:21.476Z,7
2022-12-23T14:30:49.752Z,6
2022-12-23T14:35:58.741Z,7
2022-12-23T14:38:26.941Z,6
2022-12-23T14:40:55.212Z,7
2022-12-23T14:43:23.623Z,6
2022-12-23T14:45:51.676Z,5
2022-12-23T14:48:19.947Z,5
2022-12-23T14:50:48.189Z,3
2022-12-23T14:54:30.520Z,4
2022-12-23T14:57:35.888Z,5
2022-12-23T15:02:32.372Z,8
2022-12-23T15:05:37.640Z,4
2022-12-23T15:09:20.051Z,4
2022-12-23T15:12:25.369Z,5
2022-12-23T15:15:30.654Z,4
2022-12-23T15:17:58.870Z,4
2022-12-23T15:21:41.263Z,4
2022-12-23T15:27:55.988Z,4
2022-12-23T15:31:34.371Z,4
2022-12-23T15:35:16.679Z,4
2022-12-23T15:38:21.912Z,4
2022-12-23T15:43:10.221Z,5
2022-12-23T15:47:29.671Z,3
2022-12-23T15:52:06.986Z,4
2022-12-23T15:54:17.356Z,3
2022-12-23T15:56:45.595Z,3
2022-12-23T15:59:13.845Z,3
2022-12-23T16:02:50.131Z,4
2022-12-23T16:08:30.519Z,3
2022-12-23T16:10:58.026Z,4
2022-12-23T16:14:03.346Z,4
2022-12-23T16:18:22.784Z,6
2022-12-23T16:23:19.259Z,3
2022-12-23T16:26:24.555Z,4
2022-12-23T16:29:29.931Z,5
2022-12-23T16:34:26.374Z,4
2022-12-23T16:39:22.895Z,3
2022-12-23T16:44:11.185Z,4
2022-12-23T16:46:39.420Z,5
2022-12-23T16:50:25.870Z,4
2022-12-23T16:52:54.129Z,4
2022-12-23T16:56:01.001Z,5
2022-12-23T17:00:18.881Z,8
2022-12-23T17:02:47.168Z,5
2022-12-23T17:05:15.385Z,5
2022-12-23T17:08:57.787Z,4
2022-12-23T17:12:03.042Z,5
2022-12-23T17:15:08.342Z,6
2022-12-23T17:18:50.711Z,6
2022-12-23T17:21:19.007Z,4
2022-12-23T17:23:47.246Z,5
2022-12-23T17:26:15.505Z,5
2022-12-23T17:30:34.967Z,7
2022-12-23T17:35:31.390Z,8
2022-12-23T17:37:59.656Z,7
2022-12-23T17:41:42.026Z,6
2022-12-23T17:44:30.924Z,6
2022-12-23T17:48:50.392Z,6
2022-12-23T17:51:55.704Z,6
2022-12-23T17:55:00.957Z,7
2022-12-23T17:59:20.416Z,7
2022-12-23T18:01:48.790Z,7
2022-12-23T18:04:54.009Z,7
2022-12-23T18:07:22.240Z,8
2022-12-23T18:09:50.504Z,11
2022-12-23T18:12:23.178Z,7
2022-12-23T18:14:46.975Z,7
2022-12-23T18:17:15.309Z,9
2022-12-23T18:20:20.539Z,11
2022-12-23T18:23:25.887Z,7
2022-12-23T18:26:31.148Z,8
2022-12-23T18:29:36.490Z,9
2022-12-23T18:33:18.824Z,7
2022-12-23T18:37:29.238Z,9
2022-12-23T18:39:29.427Z,8
2022-12-23T18:44:21.829Z,10
2022-12-23T18:47:27.205Z,8
2022-12-23T18:50:32.456Z,8
2022-12-23T18:53:37.779Z,7
2022-12-23T18:57:20.148Z,8
2022-12-23T19:00:25.474Z,8
2022-12-23T19:03:30.789Z,10
2022-12-23T19:06:36.040Z,9
2022-12-23T19:11:32.539Z,9
2022-12-23T19:14:37.859Z,9
2022-12-23T19:18:20.229Z,9
2022-12-23T19:21:25.552Z,10
2022-12-23T19:24:30.860Z,7
2022-12-23T19:27:36.229Z,9
2022-12-23T19:31:18.527Z,9
2022-12-23T19:34:23.860Z,10
2022-12-23T19:36:52.106Z,10
2022-12-23T19:39:20.325Z,10
2022-12-23T19:43:39.747Z,9
2022-12-23T19:46:08.032Z,9
2022-12-23T19:49:50.383Z,6
2022-12-23T19:52:55.695Z,7
2022-12-23T19:55:57.249Z,8
2022-12-23T19:58:21.065Z,9
2022-12-23T20:00:49.409Z,8
2022-12-23T20:03:17.610Z,11
2022-12-23T20:05:45.868Z,10
2022-12-23T20:08:55.005Z,11
2022-12-23T20:12:33.541Z,11
2022-12-23T20:15:01.749Z,16
2022-12-23T20:18:07.036Z,14
2022-12-23T20:21:49.413Z,12
2022-12-23T20:24:54.693Z,16
2022-12-23T20:28:00.058Z,17
2022-12-23T20:34:47.825Z,14
2022-12-23T20:37:52.985Z,16
2022-12-23T20:42:49.526Z,18
2022-12-23T20:45:54.823Z,20
2022-12-23T20:49:37.221Z,19
2022-12-23T20:52:42.468Z,18
2022-12-23T20:55:31.433Z,15
2022-12-23T20:57:59.687Z,19
2022-12-23T21:00:27.953Z,24
2022-12-23T21:03:33.239Z,20
2022-12-23T21:06:38.533Z,18
2022-12-23T21:10:20.898Z,23
2022-12-23T21:13:26.259Z,21
2022-12-23T21:16:31.536Z,18
2022-12-23T21:19:36.817Z,18
2022-12-23T21:24:33.323Z,17
2022-12-23T21:27:38.641Z,16
2022-12-23T21:31:21.090Z,21
2022-12-23T21:34:26.533Z,25
2022-12-23T21:37:31.670Z,18
2022-12-23T21:42:28.081Z,28
2022-12-23T21:45:33.415Z,23
2022-12-23T21:48:38.765Z,25
2022-12-23T21:52:21.075Z,17
2022-12-23T21:57:09.452Z,19
2022-12-23T21:59:37.656Z,19
2022-12-23T22:03:20.360Z,19
2022-12-23T22:06:25.348Z,24
2022-12-23T22:09:30.643Z,20
2022-12-23T22:14:27.131Z,18
2022-12-23T22:19:26.763Z,20
2022-12-23T22:22:28.910Z,18
2022-12-23T22:25:34.285Z,20
2022-12-23T22:28:39.561Z,24
2022-12-23T22:33:36.053Z,17
2022-12-23T22:37:18.438Z,16
2022-12-23T22:39:46.662Z,14
2022-12-23T22:42:51.978Z,19
2022-12-23T22:45:20.205Z,11
2022-12-23T22:47:48.468Z,16
2022-12-23T22:50:53.780Z,11
2022-12-23T22:53:26.315Z,13
2022-12-23T22:55:50.238Z,13
2022-12-23T22:58:18.524Z,14
2022-12-23T23:00:46.754Z,17
2022-12-23T23:04:29.136Z,14
2022-12-23T23:07:26.259Z,15
2022-12-23T23:10:31.589Z,12
2022-12-23T23:13:36.887Z,11
2022-12-23T23:17:19.244Z,16
2022-12-23T23:20:24.581Z,11
2022-12-23T23:23:29.890Z,14
2022-12-23T23:26:35.194Z,15
2022-12-23T23:30:17.531Z,15
2022-12-23T23:33:22.826Z,13
2022-12-23T23:38:19.336Z,16
2022-12-23T23:40:47.593Z,17
2022-12-23T23:43:52.919Z,15
2022-12-23T23:46:58.237Z,14
2022-12-23T23:53:09.127Z,16
2022-12-23T23:56:51.264Z,20
2022-12-23T23:59:56.514Z,16
